Archer City, Texas
Current Conditions -  °F | °C
As of 7:35 PM on Tuesday 21 Oct 2014 (Local Time) from KCWC Reporting Station
Clear Clear  
Wind Chill: 72°   Ceiling: Unl
Heat Index: 72°   Visibility: 10mi
Dew Point: 51°   Wind: 6mph
Humidity: 47%   Direction: 120°ESE
Pressure: 30.03"   Gusts: NA
Location:  33.6°N, 98.63°W
Report Text: KCWC 220035Z AUTO 12005KT 10SM CLR 22/11 A3003 RMK AO2 T02220105
Loading
Personal Weather Stations






























Interactive Weather Map New forecast layout! Learn more

10-Day Weather Forecast

Advertisements
Track Severe Weather on mobile